createdAt,value
2017-09-21T13:05:36.397Z,50.09
2017-09-21T13:06:36.400Z,50.76
2017-09-21T13:08:29.541Z,51.17
2017-09-21T13:09:29.491Z,49.73
2017-09-21T13:11:22.721Z,48.76
2017-09-21T13:12:22.639Z,48.66
2017-09-21T13:14:15.869Z,49.53
2017-09-21T13:15:15.808Z,50.11
2017-09-21T13:16:15.794Z,50.88
2017-09-21T13:17:15.782Z,50.32
2017-09-21T13:18:15.764Z,49.24
2017-09-21T13:19:15.772Z,50.01
2017-09-21T13:20:15.745Z,49.63
2017-09-21T13:21:15.732Z,49.43
2017-09-21T13:22:15.729Z,48.95
2017-09-21T13:23:15.772Z,49.15
2017-09-21T13:24:15.678Z,49.63
2017-09-21T13:25:15.675Z,49.53
2017-09-21T13:26:15.658Z,49.82
2017-09-21T13:27:15.664Z,50.85
2017-09-21T13:28:15.645Z,50.37
2017-09-21T13:29:15.622Z,51.17
2017-09-21T13:30:15.635Z,50.88
2017-09-21T13:31:15.628Z,51.07
2017-09-21T13:32:15.656Z,51.07
2017-09-21T13:33:15.574Z,51.65
2017-09-21T13:34:15.559Z,51.84
2017-09-21T13:35:15.542Z,52.04
2017-09-21T13:36:15.537Z,51.94
2017-09-21T13:37:15.516Z,51.84
2017-09-21T13:38:15.504Z,52.04
2017-09-21T13:39:15.486Z,52.52
2017-09-21T13:40:15.478Z,52.52
2017-09-21T13:41:15.489Z,51.84
2017-09-21T13:42:15.477Z,52.13
2017-09-21T13:43:57.086Z,54.79
2017-09-21T13:44:56.854Z,51.68
2017-09-21T13:46:48.955Z,52.16
2017-09-21T13:47:48.887Z,51.58
2017-09-21T13:49:41.140Z,52.13
2017-09-21T13:50:41.041Z,51.94
2017-09-21T13:52:33.231Z,52.52
2017-09-21T13:53:33.166Z,52.49
2017-09-21T13:55:25.350Z,52.97
2017-09-21T13:56:25.297Z,53.27
2017-09-21T13:58:17.486Z,53.29
2017-09-21T13:59:17.436Z,53.45
2017-09-21T14:01:09.623Z,52.87
2017-09-21T14:02:09.565Z,52.71
2017-09-21T14:04:01.648Z,52.78
2017-09-21T14:05:01.590Z,52.71
2017-09-21T14:06:53.784Z,52.71
2017-09-21T14:07:53.649Z,52.78
2017-09-21T14:09:45.798Z,52.87
2017-09-21T14:10:45.740Z,52.87
2017-09-21T14:12:37.844Z,52.97
2017-09-21T14:13:37.805Z,53.48
2017-09-21T14:15:31.478Z,53.00
2017-09-21T14:16:31.431Z,52.81
2017-09-21T14:18:23.555Z,52.78
2017-09-21T14:19:23.490Z,52.61
2017-09-21T14:21:15.681Z,52.97
2017-09-21T14:22:15.661Z,52.78
2017-09-21T14:24:07.759Z,52.71
2017-09-21T14:25:07.677Z,52.71
2017-09-21T14:26:59.843Z,52.71
2017-09-21T14:27:59.743Z,53.07
2017-09-21T14:29:51.879Z,52.69
2017-09-21T14:30:51.826Z,53.07
2017-09-21T14:32:43.977Z,52.87
2017-09-21T14:33:43.914Z,53.36
2017-09-21T14:35:37.553Z,53.17
2017-09-21T14:36:37.494Z,53.17
2017-09-21T14:38:29.663Z,53.27
2017-09-21T14:39:29.559Z,52.49
2017-09-21T14:41:21.721Z,51.72
2017-09-21T14:42:21.647Z,52.69
2017-09-21T14:44:13.808Z,52.87
2017-09-21T14:45:13.760Z,52.59
2017-09-21T14:47:05.952Z,52.81
2017-09-21T14:48:05.889Z,52.87
2017-09-21T14:50:13.860Z,53.00
2017-09-21T14:51:13.802Z,53.58
2017-09-21T14:53:06.092Z,52.78
2017-09-21T14:54:05.861Z,52.78
2017-09-21T14:55:59.511Z,52.87
2017-09-21T14:56:59.465Z,53.27
2017-09-21T14:58:51.567Z,53.55
2017-09-21T14:59:51.510Z,53.17
2017-09-21T15:01:43.673Z,52.87
2017-09-21T15:02:43.635Z,53.07
2017-09-21T15:04:35.778Z,52.69
2017-09-21T15:05:35.697Z,53.29
2017-09-21T15:07:28.201Z,53.27
2017-09-21T15:08:27.773Z,53.74
2017-09-21T15:10:19.905Z,53.65
2017-09-21T15:11:19.845Z,53.55
2017-09-21T15:13:11.919Z,53.45
2017-09-21T15:14:11.876Z,53.74
2017-09-21T15:16:03.982Z,53.07
2017-09-21T15:17:03.924Z,53.17
2017-09-21T15:18:57.698Z,53.55
2017-09-21T15:19:57.510Z,53.48
2017-09-21T15:21:49.639Z,53.84
2017-09-21T15:22:49.565Z,53.55
2017-09-21T15:24:41.827Z,53.74
2017-09-21T15:25:41.611Z,53.45
2017-09-21T15:27:33.799Z,53.45
2017-09-21T15:28:33.737Z,53.55
2017-09-21T15:30:25.882Z,53.17
2017-09-21T15:31:25.811Z,53.07
2017-09-21T15:33:17.944Z,53.74
2017-09-21T15:34:17.869Z,53.45
2017-09-21T15:36:09.963Z,53.74
2017-09-21T15:37:09.928Z,53.74
2017-09-21T15:39:03.716Z,53.94
2017-09-21T15:40:03.504Z,53.55
2017-09-21T15:41:55.631Z,53.45
2017-09-21T15:42:55.559Z,53.65
2017-09-21T15:44:47.758Z,53.55
2017-09-21T15:45:47.725Z,53.84
2017-09-21T15:47:39.795Z,53.94
2017-09-21T15:48:39.752Z,54.13
2017-09-21T15:50:31.904Z,54.13
2017-09-21T15:51:31.846Z,53.36
2017-09-21T15:53:23.954Z,53.36
2017-09-21T15:54:23.868Z,53.55
2017-09-21T15:56:16.022Z,53.65
2017-09-21T15:57:15.956Z,53.94
2017-09-21T15:59:09.572Z,53.84
2017-09-21T16:00:09.495Z,54.13
2017-09-21T16:02:01.623Z,54.42
2017-09-21T16:03:01.554Z,54.42
2017-09-21T16:04:53.668Z,54.03
2017-09-21T16:05:53.608Z,54.42
2017-09-21T16:07:45.766Z,53.94
2017-09-21T16:08:45.683Z,54.03
2017-09-21T16:10:37.947Z,54.22
2017-09-21T16:11:37.741Z,53.84
2017-09-21T16:13:29.851Z,54.13
2017-09-21T16:14:29.836Z,54.32
2017-09-21T16:16:21.898Z,53.94
2017-09-21T16:17:21.841Z,53.94
2017-09-21T16:19:13.964Z,54.32
2017-09-21T16:20:13.910Z,53.94
2017-09-21T16:22:07.559Z,54.32
2017-09-21T16:23:07.507Z,55.09
2017-09-21T16:24:59.574Z,55.00
2017-09-21T16:25:59.538Z,54.83
2017-09-21T16:27:51.668Z,54.80
2017-09-21T16:28:51.597Z,54.44
2017-09-21T16:30:43.769Z,53.36
2017-09-21T16:31:43.703Z,53.27
2017-09-21T16:33:35.807Z,53.07
2017-09-21T16:34:35.752Z,52.97
2017-09-21T16:36:27.869Z,53.27
2017-09-21T16:37:27.806Z,53.53
2017-09-21T16:39:19.973Z,52.75
2017-09-21T16:40:19.925Z,52.75
2017-09-21T16:42:12.046Z,52.27
2017-09-21T16:43:12.000Z,53.05
2017-09-21T16:45:05.619Z,52.08
2017-09-21T16:46:05.518Z,52.27
2017-09-21T16:47:57.989Z,52.18
2017-09-21T16:48:57.566Z,52.27
2017-09-21T16:50:49.790Z,52.66
2017-09-21T16:51:49.627Z,52.66
2017-09-21T16:53:41.746Z,52.47
2017-09-21T16:54:41.711Z,52.66
2017-09-21T16:56:33.985Z,51.89
2017-09-21T16:57:33.768Z,51.89
2017-09-21T16:59:25.927Z,52.95
2017-09-21T17:00:25.870Z,52.75
2017-09-21T17:02:18.018Z,53.05
2017-09-21T17:03:17.988Z,52.37
2017-09-21T17:05:10.190Z,51.89
2017-09-21T17:06:10.123Z,52.18
2017-09-21T17:08:02.275Z,52.18
2017-09-21T17:09:02.221Z,52.37
2017-09-21T17:10:54.345Z,52.66
2017-09-21T17:11:54.271Z,53.43
2017-09-21T17:13:46.589Z,53.33
2017-09-21T17:14:46.376Z,53.05
2017-09-21T17:16:38.492Z,52.95
2017-09-21T17:17:38.440Z,53.17
2017-09-21T17:19:30.633Z,53.45
2017-09-21T17:20:30.556Z,53.55
2017-09-21T17:22:22.726Z,53.55
2017-09-21T17:23:22.677Z,53.74
2017-09-21T17:25:14.810Z,53.45
2017-09-21T17:26:14.732Z,53.45
2017-09-21T17:28:06.888Z,53.45
2017-09-21T17:29:06.810Z,53.27
2017-09-21T17:30:59.014Z,53.45
2017-09-21T17:31:58.908Z,53.74
2017-09-21T17:33:50.996Z,53.36
2017-09-21T17:34:50.928Z,53.55
2017-09-21T17:36:43.086Z,53.48
2017-09-21T17:37:43.042Z,54.13
2017-09-21T17:39:35.190Z,54.03
2017-09-21T17:40:35.125Z,54.13
2017-09-21T17:42:28.705Z,53.67
2017-09-21T17:43:28.663Z,54.03
2017-09-21T17:45:20.787Z,54.22
2017-09-21T17:46:20.733Z,54.03
2017-09-21T17:48:12.923Z,53.84
2017-09-21T17:49:12.904Z,54.13
2017-09-21T17:51:05.028Z,54.61
2017-09-21T17:52:04.956Z,54.71
2017-09-21T17:53:58.619Z,54.80
2017-09-21T17:54:58.545Z,54.80
2017-09-21T17:56:50.627Z,55.29
2017-09-21T17:57:50.588Z,54.71
2017-09-21T17:59:42.720Z,55.00
2017-09-21T18:00:42.651Z,55.77
2017-09-21T18:02:34.794Z,55.57
2017-09-21T18:03:34.748Z,55.57
2017-09-21T18:05:26.851Z,55.87
2017-09-21T18:06:26.812Z,55.65
2017-09-21T18:08:34.716Z,56.41
2017-09-21T18:09:34.663Z,56.35
2017-09-21T18:11:26.763Z,56.44
2017-09-21T18:12:26.725Z,56.41
2017-09-21T18:14:18.846Z,56.63
2017-09-21T18:15:18.814Z,56.54
2017-09-21T18:17:10.952Z,56.54
2017-09-21T18:18:10.857Z,56.90
2017-09-21T18:20:03.010Z,56.44
2017-09-21T18:21:02.948Z,56.60
2017-09-21T18:22:55.578Z,56.99
2017-09-21T18:23:55.031Z,56.80
2017-09-21T18:25:48.677Z,56.92
2017-09-21T18:26:48.607Z,56.90
2017-09-21T18:28:40.792Z,57.02
2017-09-21T18:29:40.728Z,56.51
2017-09-21T18:31:32.827Z,57.28
2017-09-21T18:32:32.812Z,57.57
2017-09-21T18:34:25.097Z,57.18
2017-09-21T18:35:24.878Z,57.76
2017-09-21T18:37:17.009Z,57.47
2017-09-21T18:38:16.942Z,57.67
2017-09-21T18:40:09.050Z,57.28
2017-09-21T18:41:09.007Z,57.57
2017-09-21T18:43:02.639Z,57.09
2017-09-21T18:44:02.572Z,57.28
2017-09-21T18:45:54.695Z,57.18
2017-09-21T18:46:54.649Z,57.47
2017-09-21T18:48:46.747Z,57.57
2017-09-21T18:49:46.705Z,57.47
2017-09-21T18:51:38.954Z,57.86
2017-09-21T18:52:38.739Z,57.95
2017-09-21T18:53:38.742Z,58.05
2017-09-21T18:54:38.720Z,57.76
2017-09-21T18:55:38.716Z,57.86
2017-09-21T18:56:38.707Z,57.47
2017-09-21T18:57:38.723Z,57.86
2017-09-21T18:58:38.691Z,57.47
2017-09-21T18:59:38.677Z,57.76
2017-09-21T19:00:38.677Z,57.67
2017-09-21T19:01:38.669Z,57.67
2017-09-21T19:02:38.655Z,57.86
2017-09-21T19:03:38.661Z,57.95
2017-09-21T19:04:38.663Z,57.86
2017-09-21T19:05:38.696Z,57.47
2017-09-21T19:06:38.640Z,57.67
2017-09-21T19:07:38.616Z,57.76
2017-09-21T19:08:38.625Z,57.67
2017-09-21T19:09:38.666Z,57.67
2017-09-21T19:10:38.608Z,57.76
2017-09-21T19:11:38.589Z,57.67
2017-09-21T19:12:38.589Z,57.57
2017-09-21T19:13:38.579Z,57.47
2017-09-21T19:14:38.573Z,57.67
2017-09-21T19:15:38.576Z,58.05
2017-09-21T19:16:38.546Z,57.47
2017-09-21T19:17:38.556Z,57.76
2017-09-21T19:18:38.531Z,57.67
2017-09-21T19:19:38.528Z,57.47
2017-09-21T19:20:38.519Z,57.67
2017-09-21T19:21:38.511Z,57.57
2017-09-21T19:22:38.501Z,57.67
2017-09-21T19:23:38.505Z,57.47
2017-09-21T19:24:38.488Z,57.76
2017-09-21T19:25:38.496Z,57.76
2017-09-21T19:26:38.468Z,57.86
2017-09-21T19:27:38.507Z,57.76
2017-09-21T19:28:38.453Z,57.76
2017-09-21T19:29:38.459Z,57.76
2017-09-21T19:30:38.441Z,57.57
2017-09-21T19:31:38.452Z,57.86
2017-09-21T19:32:38.427Z,57.76
2017-09-21T19:33:38.425Z,57.76
2017-09-21T19:34:38.409Z,57.50
2017-09-21T19:35:38.393Z,57.60
2017-09-21T19:36:38.391Z,57.98
2017-09-21T19:37:38.380Z,57.47
2017-09-21T19:38:38.374Z,57.67
2017-09-21T19:39:38.359Z,57.76
2017-09-21T19:40:38.358Z,57.67
2017-09-21T19:41:38.349Z,57.57
2017-09-21T19:42:38.356Z,57.57
2017-09-21T19:43:38.333Z,57.76
2017-09-21T19:44:38.354Z,57.57
2017-09-21T19:45:38.322Z,57.67
2017-09-21T19:46:38.306Z,57.67
2017-09-21T19:47:38.304Z,57.57
2017-09-21T19:48:38.299Z,57.57
2017-09-21T19:49:38.289Z,57.57
2017-09-21T19:50:38.306Z,57.67
2017-09-21T19:51:38.269Z,57.76
2017-09-21T19:52:38.257Z,57.76
2017-09-21T19:53:38.260Z,57.76
2017-09-21T19:54:38.254Z,57.86
2017-09-21T19:55:38.241Z,57.76
2017-09-21T19:56:38.235Z,57.76
2017-09-21T19:57:38.238Z,57.76
2017-09-21T19:58:38.220Z,57.86
2017-09-21T19:59:38.210Z,57.57
2017-09-21T20:00:38.203Z,57.47
2017-09-21T20:01:38.229Z,57.76
2017-09-21T20:02:38.184Z,57.57
2017-09-21T20:03:38.167Z,57.76
2017-09-21T20:04:38.172Z,57.76
2017-09-21T20:05:38.181Z,57.76
2017-09-21T20:06:38.152Z,57.47
2017-09-21T20:07:38.146Z,57.67
2017-09-21T20:08:38.135Z,57.67
2017-09-21T20:09:38.129Z,57.76
2017-09-21T20:10:38.125Z,57.47
2017-09-21T20:11:38.107Z,57.76
2017-09-21T20:12:38.104Z,57.76
2017-09-21T20:13:38.106Z,57.67
2017-09-21T20:14:38.083Z,57.67
2017-09-21T20:15:38.072Z,57.47
2017-09-21T20:16:38.073Z,57.47
2017-09-21T20:17:38.063Z,57.76
2017-09-21T20:18:38.067Z,57.76
2017-09-21T20:19:38.044Z,57.76
2017-09-21T20:20:38.032Z,57.76
2017-09-21T20:21:38.026Z,57.86
2017-09-21T20:22:38.031Z,57.67
2017-09-21T20:23:38.008Z,58.05
2017-09-21T20:24:38.019Z,57.76
2017-09-21T20:25:38.008Z,57.76
2017-09-21T20:26:38.003Z,57.76
2017-09-21T20:27:37.984Z,58.05
2017-09-21T20:28:37.975Z,57.47
2017-09-21T20:29:37.962Z,57.67
2017-09-21T20:30:37.955Z,57.57
2017-09-21T20:31:37.952Z,57.57
2017-09-21T20:32:37.950Z,57.67
2017-09-21T20:33:37.938Z,57.47
2017-09-21T20:34:37.926Z,57.86
2017-09-21T20:35:37.918Z,57.57
2017-09-21T20:36:37.910Z,57.76
2017-09-21T20:37:37.901Z,57.47
2017-09-21T20:38:37.891Z,57.67
2017-09-21T20:39:37.883Z,57.76
2017-09-21T20:40:37.878Z,57.76
2017-09-21T20:41:37.868Z,57.57
2017-09-21T20:42:37.858Z,57.57
2017-09-21T20:43:37.853Z,57.57
2017-09-21T20:44:37.843Z,57.67
2017-09-21T20:45:37.832Z,57.76
2017-09-21T20:46:37.859Z,57.47
2017-09-21T20:47:37.819Z,57.76
2017-09-21T20:48:37.814Z,57.76
2017-09-21T20:49:37.811Z,57.76
2017-09-21T20:50:37.796Z,57.76
2017-09-21T20:51:37.786Z,57.76
2017-09-21T20:52:37.778Z,57.76
2017-09-21T20:53:37.771Z,57.86
2017-09-21T20:54:37.765Z,57.67
2017-09-21T20:55:37.746Z,57.86
2017-09-21T20:56:37.742Z,57.76
2017-09-21T20:57:37.741Z,57.57
2017-09-21T20:58:37.731Z,57.76
2017-09-21T20:59:37.717Z,57.86
2017-09-21T21:00:37.713Z,57.57
2017-09-21T21:01:37.705Z,57.67
2017-09-21T21:02:37.698Z,57.57
2017-09-21T21:03:37.690Z,57.57
2017-09-21T21:04:37.677Z,57.47
2017-09-21T21:05:37.674Z,57.47
2017-09-21T21:06:37.665Z,57.47
2017-09-21T21:07:37.655Z,57.76
2017-09-21T21:08:37.649Z,57.57
2017-09-21T21:09:37.641Z,57.57
2017-09-21T21:10:37.633Z,57.76
2017-09-21T21:11:37.628Z,57.95
2017-09-21T21:12:37.614Z,57.95
2017-09-21T21:13:37.612Z,57.76
2017-09-21T21:14:37.599Z,57.95
2017-09-21T21:15:37.593Z,57.47
2017-09-21T21:16:37.586Z,57.67
2017-09-21T21:17:37.578Z,57.76
2017-09-21T21:18:37.566Z,57.76
2017-09-21T21:19:37.561Z,57.76
2017-09-21T21:20:37.552Z,57.57
2017-09-21T21:21:37.542Z,57.95
2017-09-21T21:22:37.536Z,57.95
2017-09-21T21:23:37.531Z,57.76
2017-09-21T21:24:37.518Z,57.57
2017-09-21T21:25:37.512Z,57.57
2017-09-21T21:26:37.504Z,57.57
2017-09-21T21:27:37.498Z,57.57
2017-09-21T21:28:37.490Z,57.67
2017-09-21T21:29:37.480Z,57.57
2017-09-21T21:30:37.475Z,57.67
2017-09-21T21:31:37.462Z,57.67
2017-09-21T21:32:37.457Z,57.57
2017-09-21T21:33:37.447Z,57.57
2017-09-21T21:34:37.472Z,57.57
2017-09-21T21:35:37.429Z,57.67
2017-09-21T21:36:37.421Z,57.67
2017-09-21T21:37:37.415Z,57.76
2017-09-21T21:38:37.406Z,57.95
2017-09-21T21:39:37.397Z,57.95
2017-09-21T21:40:37.389Z,57.67
2017-09-21T21:41:37.385Z,57.76
2017-09-21T21:42:37.376Z,57.67
2017-09-21T21:43:37.371Z,57.76
2017-09-21T21:44:37.360Z,57.86
2017-09-21T21:45:37.349Z,57.67
2017-09-21T21:46:37.342Z,57.57
2017-09-21T21:47:37.333Z,57.76
2017-09-21T21:48:37.321Z,57.76
2017-09-21T21:49:37.316Z,57.76
2017-09-21T21:50:37.309Z,57.76
2017-09-21T21:51:37.300Z,57.57
2017-09-21T21:52:37.283Z,57.76
2017-09-21T21:53:37.283Z,57.67
2017-09-21T21:54:37.274Z,57.67
2017-09-21T21:55:37.267Z,57.76
2017-09-21T21:56:37.258Z,57.57
2017-09-21T21:57:37.253Z,57.57
2017-09-21T21:58:37.269Z,57.95
2017-09-21T21:59:37.235Z,57.57
2017-09-21T22:00:37.221Z,57.67
2017-09-21T22:01:37.235Z,57.67
2017-09-21T22:02:37.210Z,57.67
2017-09-21T22:03:37.233Z,57.76
2017-09-21T22:04:37.194Z,57.67
2017-09-21T22:05:37.186Z,57.57
2017-09-21T22:06:37.177Z,57.67
2017-09-21T22:07:37.173Z,57.67
2017-09-21T22:08:37.162Z,57.64
2017-09-21T22:09:37.156Z,57.76
2017-09-21T22:10:37.145Z,57.86
2017-09-21T22:11:37.141Z,57.67
2017-09-21T22:12:37.129Z,57.76
2017-09-21T22:13:37.118Z,57.76
2017-09-21T22:14:37.109Z,57.76
2017-09-21T22:15:37.106Z,57.67
2017-09-21T22:16:37.148Z,57.76
2017-09-21T22:17:37.087Z,57.67
2017-09-21T22:18:37.078Z,57.57
2017-09-21T22:19:37.072Z,57.67
2017-09-21T22:20:37.062Z,57.76
2017-09-21T22:21:37.055Z,57.57
2017-09-21T22:22:37.045Z,57.57
2017-09-21T22:23:37.039Z,57.47
2017-09-21T22:24:37.030Z,57.47
2017-09-21T22:25:37.022Z,57.64
2017-09-21T22:26:37.014Z,57.67
2017-09-21T22:27:37.003Z,57.54
2017-09-21T22:28:37.626Z,57.86
2017-09-21T22:29:36.988Z,57.86
2017-09-21T22:30:36.981Z,57.86
2017-09-21T22:31:36.972Z,57.57
2017-09-21T22:32:36.967Z,57.64
2017-09-21T22:33:36.956Z,57.73
2017-09-21T22:34:36.948Z,57.54
2017-09-21T22:35:36.938Z,57.57
2017-09-21T22:36:36.929Z,57.57
2017-09-21T22:37:36.925Z,57.64
2017-09-21T22:38:36.916Z,57.57
2017-09-21T22:39:36.906Z,57.64
2017-09-21T22:40:36.898Z,57.64
2017-09-21T22:41:36.892Z,57.76
2017-09-21T22:42:36.891Z,57.67
2017-09-21T22:43:36.875Z,57.45
2017-09-21T22:44:36.866Z,57.54
2017-09-21T22:45:36.852Z,57.64
2017-09-21T22:46:36.858Z,57.67
2017-09-21T22:47:36.843Z,57.57
2017-09-21T22:48:36.833Z,57.64
2017-09-21T22:49:36.824Z,57.67
2017-09-21T22:50:36.815Z,57.64
2017-09-21T22:51:36.806Z,57.64
2017-09-21T22:52:36.800Z,57.73
2017-09-21T22:53:36.789Z,57.54
2017-09-21T22:54:36.803Z,57.45
2017-09-21T22:55:36.776Z,57.67
2017-09-21T22:56:36.768Z,57.95
2017-09-21T22:57:36.759Z,57.54
2017-09-21T22:58:36.773Z,57.73
2017-09-21T22:59:36.743Z,57.64
2017-09-21T23:00:36.743Z,57.64
2017-09-21T23:01:36.721Z,57.64
2017-09-21T23:02:36.746Z,57.64
2017-09-21T23:03:36.709Z,57.57
2017-09-21T23:04:36.703Z,57.54
2017-09-21T23:05:36.693Z,57.67
2017-09-21T23:06:36.682Z,57.64
2017-09-21T23:07:36.676Z,57.76
2017-09-21T23:08:36.669Z,57.83
2017-09-21T23:09:36.657Z,57.92
2017-09-21T23:10:36.657Z,57.54
2017-09-21T23:11:36.637Z,57.54
2017-09-21T23:12:36.634Z,57.92
2017-09-21T23:13:36.628Z,58.02
2017-09-21T23:14:36.620Z,57.83
2017-09-21T23:15:36.611Z,57.54
2017-09-21T23:16:36.602Z,57.54
2017-09-21T23:17:36.599Z,57.83
2017-09-21T23:18:36.585Z,57.92
2017-09-21T23:19:36.574Z,57.73
2017-09-21T23:20:36.574Z,57.83
2017-09-21T23:21:36.570Z,57.47
2017-09-21T23:22:36.553Z,57.83
2017-09-21T23:23:36.544Z,57.83
2017-09-21T23:24:36.533Z,57.83
2017-09-21T23:25:36.529Z,57.95
2017-09-21T23:26:36.521Z,57.73
2017-09-21T23:27:36.513Z,57.73
2017-09-21T23:28:36.495Z,57.95
2017-09-21T23:29:36.495Z,57.83
2017-09-21T23:30:36.487Z,57.86
2017-09-21T23:31:36.482Z,58.02
2017-09-21T23:32:36.474Z,57.86
2017-09-21T23:33:36.461Z,57.83
2017-09-21T23:34:36.454Z,57.83
2017-09-21T23:35:36.440Z,57.54
2017-09-21T23:36:36.435Z,57.54
2017-09-21T23:37:36.431Z,57.45
2017-09-21T23:38:36.423Z,57.92
2017-09-21T23:39:36.413Z,58.02
2017-09-21T23:40:36.403Z,57.67
2017-09-21T23:41:36.397Z,58.02
2017-09-21T23:42:36.391Z,57.83
2017-09-21T23:43:36.381Z,57.73
2017-09-21T23:44:36.370Z,57.83
2017-09-21T23:45:36.364Z,57.64
2017-09-21T23:46:36.355Z,58.12
2017-09-21T23:47:36.347Z,57.73
2017-09-21T23:48:36.341Z,57.92
2017-09-21T23:49:36.332Z,57.45
2017-09-21T23:50:36.320Z,57.83
2017-09-21T23:51:36.311Z,57.92
2017-09-21T23:52:36.305Z,57.73
2017-09-21T23:53:36.299Z,58.12
2017-09-21T23:54:36.288Z,58.12
2017-09-21T23:55:36.278Z,57.83
2017-09-21T23:56:36.272Z,57.92
2017-09-21T23:57:36.264Z,57.92
2017-09-21T23:58:36.253Z,57.73
2017-09-21T23:59:36.247Z,58.02
